<?xml version="1.0" encoding="UTF-8" standalone="no" ?><gpx xmlns="http://www.topografix.com/GPX/1/1" xmlns:gpxx="http://www.garmin.com/xmlschemas/GpxExtensions/v3" xmlns:wptx1="http://www.garmin.com/xmlschemas/WaypointExtension/v1" xmlns:gpxtpx="http://www.garmin.com/xmlschemas/TrackPointExtension/v1" creator="GuideVTT.com" version="1.1" xmlns:xsi="http://www.w3.org/2001/XMLSchema-instance" xsi:schemaLocation="http://www.topografix.com/GPX/1/1 http://www.topografix.com/GPX/1/1/gpx.xsd http://www.garmin.com/xmlschemas/GpxExtensions/v3 http://www8.garmin.com/xmlschemas/GpxExtensionsv3.xsd http://www.garmin.com/xmlschemas/WaypointExtension/v1 http://www8.garmin.com/xmlschemas/WaypointExtensionv1.xsd http://www.garmin.com/xmlschemas/TrackPointExtension/v1 http://www.garmin.com/xmlschemas/TrackPointExtensionv1.xsd">
<metadata><link href="http://www.garmin.com"><text>Garmin International</text></link><time>2013-06-22T15:13:50Z</time></metadata>
<trk><name>tvh-la_sage_arolla.gpx</name><extensions><gpxx:TrackExtension><gpxx:DisplayColor>Cyan</gpxx:DisplayColor></gpxx:TrackExtension></extensions><trkseg>
<trkpt lat="46.09863281" lon="7.51492739"><ele>1671.869873</ele><time>2009-06-16T09:34:13Z</time></trkpt>
<trkpt lat="46.09861135" lon="7.51494884"><ele>1671.869873</ele><time>2009-06-16T09:37:08Z</time></trkpt>
<trkpt lat="46.09858990" lon="7.51490593"><ele>1670.908691</ele><time>2009-06-16T09:37:41Z</time></trkpt>
<trkpt lat="46.09865427" lon="7.51466990"><ele>1667.543945</ele><time>2009-06-16T09:37:58Z</time></trkpt>
<trkpt lat="46.09867573" lon="7.51469135"><ele>1661.295654</ele><time>2009-06-16T09:38:54Z</time></trkpt>
<trkpt lat="46.09865427" lon="7.51421928"><ele>1656.969482</ele><time>2009-06-16T09:39:06Z</time></trkpt>
<trkpt lat="46.09850407" lon="7.51428366"><ele>1656.48877</ele><time>2009-06-16T09:39:13Z</time></trkpt>
<trkpt lat="46.09843969" lon="7.51411200"><ele>1654.085693</ele><time>2009-06-16T09:39:18Z</time></trkpt>
<trkpt lat="46.09854698" lon="7.51359701"><ele>1649.759766</ele><time>2009-06-16T09:39:27Z</time></trkpt>
<trkpt lat="46.09865427" lon="7.51346827"><ele>1647.356445</ele><time>2009-06-16T09:39:32Z</time></trkpt>
<trkpt lat="46.09869719" lon="7.51312494"><ele>1645.433838</ele><time>2009-06-16T09:39:38Z</time></trkpt>
<trkpt lat="46.09867573" lon="7.51301765"><ele>1645.914551</ele><time>2009-06-16T09:39:41Z</time></trkpt>
<trkpt lat="46.09837532" lon="7.51295328"><ele>1643.510986</ele><time>2009-06-16T09:39:49Z</time></trkpt>
<trkpt lat="46.09813929" lon="7.51297474"><ele>1638.70459</ele><time>2009-06-16T09:39:56Z</time></trkpt>
<trkpt lat="46.09801054" lon="7.51312494"><ele>1637.262451</ele><time>2009-06-16T09:40:00Z</time></trkpt>
<trkpt lat="46.09777451" lon="7.51348972"><ele>1636.30127</ele><time>2009-06-16T09:40:07Z</time></trkpt>
<trkpt lat="46.09766722" lon="7.51370430"><ele>1634.378662</ele><time>2009-06-16T09:40:11Z</time></trkpt>
<trkpt lat="46.09730244" lon="7.51413345"><ele>1627.168701</ele><time>2009-06-16T09:40:20Z</time></trkpt>
<trkpt lat="46.09670162" lon="7.51428366"><ele>1619.95874</ele><time>2009-06-16T09:40:28Z</time></trkpt>
<trkpt lat="46.09620810" lon="7.51409054"><ele>1615.152344</ele><time>2009-06-16T09:40:34Z</time></trkpt>
<trkpt lat="46.09584332" lon="7.51400471"><ele>1615.152344</ele><time>2009-06-16T09:40:39Z</time></trkpt>
<trkpt lat="46.09539270" lon="7.51432657"><ele>1620.920166</ele><time>2009-06-16T09:40:56Z</time></trkpt>
<trkpt lat="46.09509230" lon="7.51439095"><ele>1622.842773</ele><time>2009-06-16T09:41:09Z</time></trkpt>
<trkpt lat="46.09444857" lon="7.51430511"><ele>1622.842773</ele><time>2009-06-16T09:41:33Z</time></trkpt>
<trkpt lat="46.09427691" lon="7.51404762"><ele>1624.284668</ele><time>2009-06-16T09:41:43Z</time></trkpt>
<trkpt lat="46.09406233" lon="7.51363993"><ele>1617.55542</ele><time>2009-06-16T09:41:55Z</time></trkpt>
<trkpt lat="46.09363317" lon="7.51353264"><ele>1607.46167</ele><time>2009-06-16T09:42:15Z</time></trkpt>
<trkpt lat="46.09337568" lon="7.51342535"><ele>1601.693848</ele><time>2009-06-16T09:42:27Z</time></trkpt>
<trkpt lat="46.09303236" lon="7.51348972"><ele>1595.445068</ele><time>2009-06-16T09:42:39Z</time></trkpt>
<trkpt lat="46.09288216" lon="7.51361847"><ele>1592.080566</ele><time>2009-06-16T09:42:48Z</time></trkpt>
<trkpt lat="46.09232426" lon="7.51357555"><ele>1584.390137</ele><time>2009-06-16T09:43:12Z</time></trkpt>
<trkpt lat="46.09191656" lon="7.51344681"><ele>1583.909424</ele><time>2009-06-16T09:43:26Z</time></trkpt>
<trkpt lat="46.09168053" lon="7.51331806"><ele>1581.986816</ele><time>2009-06-16T09:43:36Z</time></trkpt>
<trkpt lat="46.09140158" lon="7.51327515"><ele>1577.180176</ele><time>2009-06-16T09:43:44Z</time></trkpt>
<trkpt lat="46.09080076" lon="7.51306057"><ele>1577.660645</ele><time>2009-06-16T09:44:07Z</time></trkpt>
<trkpt lat="46.09039307" lon="7.51312494"><ele>1571.892822</ele><time>2009-06-16T09:44:20Z</time></trkpt>
<trkpt lat="46.09007120" lon="7.51293182"><ele>1566.125</ele><time>2009-06-16T09:44:32Z</time></trkpt>
<trkpt lat="46.08927727" lon="7.51284599"><ele>1554.589111</ele><time>2009-06-16T09:44:58Z</time></trkpt>
<trkpt lat="46.08803272" lon="7.51250267"><ele>1540.169434</ele><time>2009-06-16T09:45:35Z</time></trkpt>
<trkpt lat="46.08794689" lon="7.51252413"><ele>1536.804688</ele><time>2009-06-16T09:45:39Z</time></trkpt>
<trkpt lat="46.08771086" lon="7.51237392"><ele>1537.2854</ele><time>2009-06-16T09:45:51Z</time></trkpt>
<trkpt lat="46.08745337" lon="7.51239538"><ele>1534.882324</ele><time>2009-06-16T09:46:04Z</time></trkpt>
<trkpt lat="46.08700275" lon="7.51222372"><ele>1533.440186</ele><time>2009-06-16T09:46:18Z</time></trkpt>
<trkpt lat="46.08646631" lon="7.51211643"><ele>1526.710938</ele><time>2009-06-16T09:46:33Z</time></trkpt>
<trkpt lat="46.08599424" lon="7.51188040"><ele>1518.059082</ele><time>2009-06-16T09:46:47Z</time></trkpt>
<trkpt lat="46.08573675" lon="7.51164436"><ele>1519.020508</ele><time>2009-06-16T09:46:57Z</time></trkpt>
<trkpt lat="46.08530760" lon="7.51132250"><ele>1511.810547</ele><time>2009-06-16T09:47:09Z</time></trkpt>
<trkpt lat="46.08511448" lon="7.51112938"><ele>1492.584229</ele><time>2009-06-16T09:49:16Z</time></trkpt>
<trkpt lat="46.08447075" lon="7.51085043"><ele>1480.567627</ele><time>2009-06-16T09:49:41Z</time></trkpt>
<trkpt lat="46.08393431" lon="7.51029253"><ele>1467.5896</ele><time>2009-06-16T09:50:09Z</time></trkpt>
<trkpt lat="46.08296871" lon="7.51001358"><ele>1442.11499</ele><time>2009-06-16T09:51:36Z</time></trkpt>
<trkpt lat="46.08296871" lon="7.50971317"><ele>1442.595703</ele><time>2009-06-16T09:51:46Z</time></trkpt>
<trkpt lat="46.08314037" lon="7.50958443"><ele>1440.672852</ele><time>2009-06-16T09:51:53Z</time></trkpt>
<trkpt lat="46.08346224" lon="7.50954151"><ele>1440.192383</ele><time>2009-06-16T09:52:03Z</time></trkpt>
<trkpt lat="46.08389139" lon="7.50915527"><ele>1443.076172</ele><time>2009-06-16T09:52:18Z</time></trkpt>
<trkpt lat="46.08417034" lon="7.50898361"><ele>1438.750488</ele><time>2009-06-16T09:52:29Z</time></trkpt>
<trkpt lat="46.08459949" lon="7.50904799"><ele>1434.424316</ele><time>2009-06-16T09:52:38Z</time></trkpt>
<trkpt lat="46.08472824" lon="7.50883341"><ele>1433.943604</ele><time>2009-06-16T09:52:44Z</time></trkpt>
<trkpt lat="46.08432055" lon="7.50844717"><ele>1438.750488</ele><time>2009-06-16T09:53:03Z</time></trkpt>
<trkpt lat="46.08399868" lon="7.50821114"><ele>1438.750488</ele><time>2009-06-16T09:53:18Z</time></trkpt>
<trkpt lat="46.08391285" lon="7.50823259"><ele>1440.672852</ele><time>2009-06-16T09:53:31Z</time></trkpt>
<trkpt lat="46.08391285" lon="7.50821114"><ele>1436.827637</ele><time>2009-06-16T09:55:04Z</time></trkpt>
<trkpt lat="46.08363390" lon="7.50791073"><ele>1437.789063</ele><time>2009-06-16T09:55:16Z</time></trkpt>
<trkpt lat="46.08354807" lon="7.50786781"><ele>1438.269775</ele><time>2009-06-16T09:55:21Z</time></trkpt>
<trkpt lat="46.08354807" lon="7.50771761"><ele>1439.230957</ele><time>2009-06-16T09:55:26Z</time></trkpt>
<trkpt lat="46.08365536" lon="7.50720263"><ele>1436.347168</ele><time>2009-06-16T09:55:37Z</time></trkpt>
<trkpt lat="46.08365536" lon="7.50677347"><ele>1432.020996</ele><time>2009-06-16T09:55:43Z</time></trkpt>
<trkpt lat="46.08354807" lon="7.50604391"><ele>1431.059814</ele><time>2009-06-16T09:55:53Z</time></trkpt>
<trkpt lat="46.08335495" lon="7.50557184"><ele>1425.291748</ele><time>2009-06-16T09:56:02Z</time></trkpt>
<trkpt lat="46.08335495" lon="7.50514269"><ele>1424.811279</ele><time>2009-06-16T09:56:12Z</time></trkpt>
<trkpt lat="46.08279705" lon="7.50471354"><ele>1427.695068</ele><time>2009-06-16T09:56:34Z</time></trkpt>
<trkpt lat="46.08221769" lon="7.50439167"><ele>1432.020996</ele><time>2009-06-16T09:57:00Z</time></trkpt>
<trkpt lat="46.08191729" lon="7.50439167"><ele>1432.020996</ele><time>2009-06-16T09:57:13Z</time></trkpt>
<trkpt lat="46.08123064" lon="7.50462770"><ele>1435.385498</ele><time>2009-06-16T09:57:40Z</time></trkpt>
<trkpt lat="46.08099461" lon="7.50475645"><ele>1437.30835</ele><time>2009-06-16T09:57:52Z</time></trkpt>
<trkpt lat="46.08045816" lon="7.50546455"><ele>1436.347168</ele><time>2009-06-16T09:58:17Z</time></trkpt>
<trkpt lat="46.08024359" lon="7.50555038"><ele>1436.827637</ele><time>2009-06-16T09:58:28Z</time></trkpt>
<trkpt lat="46.07998610" lon="7.50537872"><ele>1437.30835</ele><time>2009-06-16T09:58:41Z</time></trkpt>
<trkpt lat="46.07968569" lon="7.50507832"><ele>1439.230957</ele><time>2009-06-16T09:58:58Z</time></trkpt>
<trkpt lat="46.07932091" lon="7.50479937"><ele>1440.672852</ele><time>2009-06-16T09:59:15Z</time></trkpt>
<trkpt lat="46.07897758" lon="7.50447750"><ele>1445.479492</ele><time>2009-06-16T09:59:38Z</time></trkpt>
<trkpt lat="46.07887030" lon="7.50400543"><ele>1454.612061</ele><time>2009-06-16T10:00:11Z</time></trkpt>
<trkpt lat="46.07861280" lon="7.50361919"><ele>1462.783203</ele><time>2009-06-16T10:00:48Z</time></trkpt>
<trkpt lat="46.07850552" lon="7.50353336"><ele>1463.744385</ele><time>2009-06-16T10:00:58Z</time></trkpt>
<trkpt lat="46.07852697" lon="7.50327587"><ele>1466.628418</ele><time>2009-06-16T10:01:17Z</time></trkpt>
<trkpt lat="46.07850552" lon="7.50301838"><ele>1470.95459</ele><time>2009-06-16T10:01:39Z</time></trkpt>
<trkpt lat="46.07841969" lon="7.50288963"><ele>1474.319092</ele><time>2009-06-16T10:01:52Z</time></trkpt>
<trkpt lat="46.07803345" lon="7.50252485"><ele>1482.490234</ele><time>2009-06-16T10:02:38Z</time></trkpt>
<trkpt lat="46.07769012" lon="7.50233173"><ele>1486.335693</ele><time>2009-06-16T10:03:07Z</time></trkpt>
<trkpt lat="46.07766867" lon="7.50222445"><ele>1487.777588</ele><time>2009-06-16T10:03:18Z</time></trkpt>
<trkpt lat="46.07775450" lon="7.50196695"><ele>1489.219482</ele><time>2009-06-16T10:03:44Z</time></trkpt>
<trkpt lat="46.07784033" lon="7.50190258"><ele>1490.180908</ele><time>2009-06-16T10:03:50Z</time></trkpt>
<trkpt lat="46.07818365" lon="7.50194550"><ele>1494.026123</ele><time>2009-06-16T10:04:16Z</time></trkpt>
<trkpt lat="46.07826948" lon="7.50183821"><ele>1494.987305</ele><time>2009-06-16T10:04:27Z</time></trkpt>
<trkpt lat="46.07809782" lon="7.50168800"><ele>1497.871338</ele><time>2009-06-16T10:04:49Z</time></trkpt>
<trkpt lat="46.07799053" lon="7.50149488"><ele>1500.755371</ele><time>2009-06-16T10:05:06Z</time></trkpt>
<trkpt lat="46.07753992" lon="7.50110865"><ele>1513.252441</ele><time>2009-06-16T10:06:02Z</time></trkpt>
<trkpt lat="46.07728243" lon="7.50078678"><ele>1524.307617</ele><time>2009-06-16T10:06:44Z</time></trkpt>
<trkpt lat="46.07719660" lon="7.50061512"><ele>1525.749512</ele><time>2009-06-16T10:06:59Z</time></trkpt>
<trkpt lat="46.07717514" lon="7.50046492"><ele>1526.710938</ele><time>2009-06-16T10:07:10Z</time></trkpt>
<trkpt lat="46.07704639" lon="7.50025034"><ele>1529.114014</ele><time>2009-06-16T10:07:31Z</time></trkpt>
<trkpt lat="46.07693911" lon="7.50012159"><ele>1530.075439</ele><time>2009-06-16T10:07:45Z</time></trkpt>
<trkpt lat="46.07676744" lon="7.50007868"><ele>1533.440186</ele><time>2009-06-16T10:08:04Z</time></trkpt>
<trkpt lat="46.07668161" lon="7.50001431"><ele>1538.246826</ele><time>2009-06-16T10:08:15Z</time></trkpt>
<trkpt lat="46.07663870" lon="7.49988556"><ele>1540.169434</ele><time>2009-06-16T10:08:25Z</time></trkpt>
<trkpt lat="46.07650995" lon="7.49969244"><ele>1541.611328</ele><time>2009-06-16T10:08:46Z</time></trkpt>
<trkpt lat="46.07642412" lon="7.49941349"><ele>1544.97583</ele><time>2009-06-16T10:09:09Z</time></trkpt>
<trkpt lat="46.07635975" lon="7.49930620"><ele>1546.898438</ele><time>2009-06-16T10:09:20Z</time></trkpt>
<trkpt lat="46.07618809" lon="7.49913454"><ele>1551.224609</ele><time>2009-06-16T10:09:40Z</time></trkpt>
<trkpt lat="46.07610226" lon="7.49896288"><ele>1556.031006</ele><time>2009-06-16T10:09:57Z</time></trkpt>
<trkpt lat="46.07601643" lon="7.49885559"><ele>1556.511719</ele><time>2009-06-16T10:10:12Z</time></trkpt>
<trkpt lat="46.07580185" lon="7.49870539"><ele>1559.876221</ele><time>2009-06-16T10:10:39Z</time></trkpt>
<trkpt lat="46.07550144" lon="7.49874830"><ele>1561.318359</ele><time>2009-06-16T10:10:58Z</time></trkpt>
<trkpt lat="46.07537270" lon="7.49864101"><ele>1560.356934</ele><time>2009-06-16T10:11:01Z</time></trkpt>
<trkpt lat="46.07498646" lon="7.49819040"><ele>1567.086426</ele><time>2009-06-16T10:11:34Z</time></trkpt>
<trkpt lat="46.07490063" lon="7.49795437"><ele>1571.412109</ele><time>2009-06-16T10:11:49Z</time></trkpt>
<trkpt lat="46.07481480" lon="7.49784708"><ele>1571.412109</ele><time>2009-06-16T10:11:57Z</time></trkpt>
<trkpt lat="46.07464314" lon="7.49778271"><ele>1574.776855</ele><time>2009-06-16T10:12:13Z</time></trkpt>
<trkpt lat="46.07455730" lon="7.49780416"><ele>1574.776855</ele><time>2009-06-16T10:12:20Z</time></trkpt>
<trkpt lat="46.07442856" lon="7.49741793"><ele>1576.699463</ele><time>2009-06-16T10:12:39Z</time></trkpt>
<trkpt lat="46.07436419" lon="7.49694586"><ele>1577.180176</ele><time>2009-06-16T10:12:54Z</time></trkpt>
<trkpt lat="46.07434273" lon="7.49649525"><ele>1577.660645</ele><time>2009-06-16T10:13:08Z</time></trkpt>
<trkpt lat="46.07438564" lon="7.49591589"><ele>1591.599854</ele><time>2009-06-16T10:13:39Z</time></trkpt>
<trkpt lat="46.07436419" lon="7.49572277"><ele>1589.677246</ele><time>2009-06-16T10:13:52Z</time></trkpt>
<trkpt lat="46.07425690" lon="7.49570131"><ele>1588.235352</ele><time>2009-06-16T10:14:00Z</time></trkpt>
<trkpt lat="46.07417107" lon="7.49585152"><ele>1589.677246</ele><time>2009-06-16T10:14:11Z</time></trkpt>
<trkpt lat="46.07404232" lon="7.49595881"><ele>1589.677246</ele><time>2009-06-16T10:14:24Z</time></trkpt>
<trkpt lat="46.07397795" lon="7.49595881"><ele>1590.157959</ele><time>2009-06-16T10:14:31Z</time></trkpt>
<trkpt lat="46.07359171" lon="7.49563694"><ele>1598.329102</ele><time>2009-06-16T10:15:18Z</time></trkpt>
<trkpt lat="46.07352734" lon="7.49555111"><ele>1600.732422</ele><time>2009-06-16T10:15:27Z</time></trkpt>
<trkpt lat="46.07346296" lon="7.49550819"><ele>1601.213135</ele><time>2009-06-16T10:15:33Z</time></trkpt>
<trkpt lat="46.07331276" lon="7.49529362"><ele>1604.097168</ele><time>2009-06-16T10:15:55Z</time></trkpt>
<trkpt lat="46.07329130" lon="7.49501467"><ele>1608.422852</ele><time>2009-06-16T10:16:16Z</time></trkpt>
<trkpt lat="46.07316256" lon="7.49492884"><ele>1609.384277</ele><time>2009-06-16T10:16:29Z</time></trkpt>
<trkpt lat="46.07305527" lon="7.49490738"><ele>1611.306885</ele><time>2009-06-16T10:16:40Z</time></trkpt>
<trkpt lat="46.07296944" lon="7.49480009"><ele>1611.787598</ele><time>2009-06-16T10:16:53Z</time></trkpt>
<trkpt lat="46.07266903" lon="7.49458551"><ele>1618.036133</ele><time>2009-06-16T10:17:34Z</time></trkpt>
<trkpt lat="46.07234716" lon="7.49419928"><ele>1629.572021</ele><time>2009-06-16T10:18:25Z</time></trkpt>
<trkpt lat="46.07217550" lon="7.49383450"><ele>1636.30127</ele><time>2009-06-16T10:19:07Z</time></trkpt>
<trkpt lat="46.07208967" lon="7.49374866"><ele>1638.70459</ele><time>2009-06-16T10:19:20Z</time></trkpt>
<trkpt lat="46.07202530" lon="7.49361992"><ele>1640.626953</ele><time>2009-06-16T10:19:34Z</time></trkpt>
<trkpt lat="46.07174635" lon="7.49325514"><ele>1648.317627</ele><time>2009-06-16T10:20:19Z</time></trkpt>
<trkpt lat="46.07157469" lon="7.49310493"><ele>1650.720947</ele><time>2009-06-16T10:20:43Z</time></trkpt>
<trkpt lat="46.07118845" lon="7.49293327"><ele>1655.046875</ele><time>2009-06-16T10:21:26Z</time></trkpt>
<trkpt lat="46.07093096" lon="7.49274015"><ele>1657.450195</ele><time>2009-06-16T10:21:54Z</time></trkpt>
<trkpt lat="46.07058764" lon="7.49265432"><ele>1667.063477</ele><time>2009-06-16T10:22:34Z</time></trkpt>
<trkpt lat="46.07045889" lon="7.49271870"><ele>1669.947266</ele><time>2009-06-16T10:22:47Z</time></trkpt>
<trkpt lat="46.07043743" lon="7.49289036"><ele>1671.869873</ele><time>2009-06-16T10:22:59Z</time></trkpt>
<trkpt lat="46.07041597" lon="7.49293327"><ele>1672.831299</ele><time>2009-06-16T10:23:02Z</time></trkpt>
<trkpt lat="46.07037306" lon="7.49295473"><ele>1673.312012</ele><time>2009-06-16T10:23:07Z</time></trkpt>
<trkpt lat="46.07022285" lon="7.49289036"><ele>1674.753906</ele><time>2009-06-16T10:23:24Z</time></trkpt>
<trkpt lat="46.07030869" lon="7.49291182"><ele>1684.367188</ele><time>2009-06-16T10:44:51Z</time></trkpt>
<trkpt lat="46.07015848" lon="7.49282598"><ele>1672.350586</ele><time>2009-06-16T11:01:03Z</time></trkpt>
<trkpt lat="46.07013702" lon="7.49276161"><ele>1674.273193</ele><time>2009-06-16T11:01:15Z</time></trkpt>
<trkpt lat="46.06994390" lon="7.49258995"><ele>1675.234375</ele><time>2009-06-16T11:01:56Z</time></trkpt>
<trkpt lat="46.06968641" lon="7.49243975"><ele>1681.963867</ele><time>2009-06-16T11:02:35Z</time></trkpt>
<trkpt lat="46.06960058" lon="7.49246120"><ele>1683.405762</ele><time>2009-06-16T11:02:47Z</time></trkpt>
<trkpt lat="46.06936455" lon="7.49271870"><ele>1684.8479</ele><time>2009-06-16T11:03:25Z</time></trkpt>
<trkpt lat="46.06919289" lon="7.49295473"><ele>1690.13501</ele><time>2009-06-16T11:03:56Z</time></trkpt>
<trkpt lat="46.06848478" lon="7.49319077"><ele>1697.344971</ele><time>2009-06-16T11:05:09Z</time></trkpt>
<trkpt lat="46.06816292" lon="7.49342680"><ele>1703.593506</ele><time>2009-06-16T11:05:48Z</time></trkpt>
<trkpt lat="46.06794834" lon="7.49351263"><ele>1709.842041</ele><time>2009-06-16T11:06:15Z</time></trkpt>
<trkpt lat="46.06775522" lon="7.49349117"><ele>1713.687256</ele><time>2009-06-16T11:06:39Z</time></trkpt>
<trkpt lat="46.06766939" lon="7.49353409"><ele>1716.571289</ele><time>2009-06-16T11:07:09Z</time></trkpt>
<trkpt lat="46.06766939" lon="7.49349117"><ele>1714.648682</ele><time>2009-06-16T11:08:00Z</time></trkpt>
<trkpt lat="46.06758356" lon="7.49353409"><ele>1720.897217</ele><time>2009-06-16T11:08:37Z</time></trkpt>
<trkpt lat="46.06706858" lon="7.49344826"><ele>1725.703857</ele><time>2009-06-16T11:10:12Z</time></trkpt>
<trkpt lat="46.06691837" lon="7.49338388"><ele>1726.665283</ele><time>2009-06-16T11:10:27Z</time></trkpt>
<trkpt lat="46.06644630" lon="7.49331951"><ele>1733.394287</ele><time>2009-06-16T11:11:18Z</time></trkpt>
<trkpt lat="46.06606007" lon="7.49308348"><ele>1743.007568</ele><time>2009-06-16T11:12:15Z</time></trkpt>
<trkpt lat="46.06603861" lon="7.49293327"><ele>1743.968994</ele><time>2009-06-16T11:12:30Z</time></trkpt>
<trkpt lat="46.06593132" lon="7.49274015"><ele>1743.488281</ele><time>2009-06-16T11:12:47Z</time></trkpt>
<trkpt lat="46.06569529" lon="7.49258995"><ele>1744.930176</ele><time>2009-06-16T11:13:13Z</time></trkpt>
<trkpt lat="46.06539488" lon="7.49211788"><ele>1755.985107</ele><time>2009-06-16T11:14:02Z</time></trkpt>
<trkpt lat="46.06494427" lon="7.49188185"><ele>1760.311279</ele><time>2009-06-16T11:14:43Z</time></trkpt>
<trkpt lat="46.06440783" lon="7.49186039"><ele>1764.156494</ele><time>2009-06-16T11:15:19Z</time></trkpt>
<trkpt lat="46.06384993" lon="7.49209642"><ele>1774.731201</ele><time>2009-06-16T11:16:08Z</time></trkpt>
<trkpt lat="46.06301308" lon="7.49192476"><ele>1782.421631</ele><time>2009-06-16T11:17:36Z</time></trkpt>
<trkpt lat="46.06266975" lon="7.49207497"><ele>1786.266846</ele><time>2009-06-16T11:18:20Z</time></trkpt>
<trkpt lat="46.06204748" lon="7.49188185"><ele>1798.763916</ele><time>2009-06-16T11:19:20Z</time></trkpt>
<trkpt lat="46.06157541" lon="7.49164581"><ele>1805.493408</ele><time>2009-06-16T11:20:09Z</time></trkpt>
<trkpt lat="46.06088877" lon="7.49155998"><ele>1810.299805</ele><time>2009-06-16T11:21:09Z</time></trkpt>
<trkpt lat="46.06086731" lon="7.49164581"><ele>1820.874512</ele><time>2009-06-16T11:22:51Z</time></trkpt>
<trkpt lat="46.06045961" lon="7.49177456"><ele>1815.587158</ele><time>2009-06-16T11:23:15Z</time></trkpt>
<trkpt lat="46.05990171" lon="7.49205351"><ele>1816.54834</ele><time>2009-06-16T11:23:55Z</time></trkpt>
<trkpt lat="46.05983734" lon="7.49205351"><ele>1816.54834</ele><time>2009-06-16T11:23:58Z</time></trkpt>
<trkpt lat="46.05975151" lon="7.49194622"><ele>1816.54834</ele><time>2009-06-16T11:24:03Z</time></trkpt>
<trkpt lat="46.05910778" lon="7.49171019"><ele>1813.664307</ele><time>2009-06-16T11:24:43Z</time></trkpt>
<trkpt lat="46.05854988" lon="7.49175310"><ele>1817.029053</ele><time>2009-06-16T11:25:22Z</time></trkpt>
<trkpt lat="46.05809927" lon="7.49164581"><ele>1817.029053</ele><time>2009-06-16T11:25:38Z</time></trkpt>
<trkpt lat="46.05771303" lon="7.49147415"><ele>1812.222412</ele><time>2009-06-16T11:26:18Z</time></trkpt>
<trkpt lat="46.05732679" lon="7.49138832"><ele>1820.874512</ele><time>2009-06-16T11:27:05Z</time></trkpt>
<trkpt lat="46.05711222" lon="7.49140978"><ele>1824.239014</ele><time>2009-06-16T11:27:55Z</time></trkpt>
<trkpt lat="46.05689764" lon="7.49134541"><ele>1831.44873</ele><time>2009-06-16T11:28:23Z</time></trkpt>
<trkpt lat="46.05672598" lon="7.49121666"><ele>1830.487549</ele><time>2009-06-16T11:28:38Z</time></trkpt>
<trkpt lat="46.05603933" lon="7.49108791"><ele>1835.293945</ele><time>2009-06-16T11:29:21Z</time></trkpt>
<trkpt lat="46.05586767" lon="7.49100208"><ele>1836.736084</ele><time>2009-06-16T11:29:35Z</time></trkpt>
<trkpt lat="46.05573893" lon="7.49087334"><ele>1839.620117</ele><time>2009-06-16T11:29:48Z</time></trkpt>
<trkpt lat="46.05556726" lon="7.49076605"><ele>1842.023438</ele><time>2009-06-16T11:30:01Z</time></trkpt>
<trkpt lat="46.05530977" lon="7.49091625"><ele>1842.50415</ele><time>2009-06-16T11:30:14Z</time></trkpt>
<trkpt lat="46.05503082" lon="7.49100208"><ele>1843.465332</ele><time>2009-06-16T11:30:25Z</time></trkpt>
<trkpt lat="46.05466604" lon="7.49072313"><ele>1842.50415</ele><time>2009-06-16T11:30:35Z</time></trkpt>
<trkpt lat="46.05440855" lon="7.49035835"><ele>1840.10083</ele><time>2009-06-16T11:30:41Z</time></trkpt>
<trkpt lat="46.05408669" lon="7.49027252"><ele>1837.69751</ele><time>2009-06-16T11:30:46Z</time></trkpt>
<trkpt lat="46.05357170" lon="7.49033689"><ele>1833.371338</ele><time>2009-06-16T11:30:52Z</time></trkpt>
<trkpt lat="46.05307817" lon="7.49014378"><ele>1830.968262</ele><time>2009-06-16T11:30:57Z</time></trkpt>
<trkpt lat="46.05226278" lon="7.49012232"><ele>1828.084229</ele><time>2009-06-16T11:31:05Z</time></trkpt>
<trkpt lat="46.05206966" lon="7.49007940"><ele>1827.123047</ele><time>2009-06-16T11:31:07Z</time></trkpt>
<trkpt lat="46.05144739" lon="7.48971462"><ele>1824.239014</ele><time>2009-06-16T11:31:14Z</time></trkpt>
<trkpt lat="46.05101824" lon="7.48973608"><ele>1822.316406</ele><time>2009-06-16T11:31:19Z</time></trkpt>
<trkpt lat="46.05043888" lon="7.49001503"><ele>1820.393799</ele><time>2009-06-16T11:31:26Z</time></trkpt>
<trkpt lat="46.05011702" lon="7.48986483"><ele>1819.432373</ele><time>2009-06-16T11:31:30Z</time></trkpt>
<trkpt lat="46.04900122" lon="7.48889923"><ele>1813.664307</ele><time>2009-06-16T11:31:44Z</time></trkpt>
<trkpt lat="46.04842186" lon="7.48844862"><ele>1812.703125</ele><time>2009-06-16T11:31:52Z</time></trkpt>
<trkpt lat="46.04827166" lon="7.48842716"><ele>1812.222412</ele><time>2009-06-16T11:31:55Z</time></trkpt>
<trkpt lat="46.04809999" lon="7.48844862"><ele>1811.741943</ele><time>2009-06-16T11:31:59Z</time></trkpt>
<trkpt lat="46.04799271" lon="7.48898506"><ele>1804.531982</ele><time>2009-06-16T11:32:13Z</time></trkpt>
<trkpt lat="46.04786396" lon="7.48902798"><ele>1804.051514</ele><time>2009-06-16T11:32:19Z</time></trkpt>
<trkpt lat="46.04782104" lon="7.48894215"><ele>1810.299805</ele><time>2009-06-16T11:39:41Z</time></trkpt>
<trkpt lat="46.04754210" lon="7.48898506"><ele>1810.299805</ele><time>2009-06-16T11:39:55Z</time></trkpt>
<trkpt lat="46.04702711" lon="7.48874903"><ele>1810.780518</ele><time>2009-06-16T11:40:26Z</time></trkpt>
<trkpt lat="46.04679108" lon="7.48872757"><ele>1811.741943</ele><time>2009-06-16T11:40:38Z</time></trkpt>
<trkpt lat="46.04653358" lon="7.48857737"><ele>1813.183838</ele><time>2009-06-16T11:40:52Z</time></trkpt>
<trkpt lat="46.04569674" lon="7.48883486"><ele>1820.393799</ele><time>2009-06-16T11:41:46Z</time></trkpt>
<trkpt lat="46.04546070" lon="7.48894215"><ele>1820.393799</ele><time>2009-06-16T11:42:24Z</time></trkpt>
<trkpt lat="46.04543924" lon="7.48889923"><ele>1820.393799</ele><time>2009-06-16T11:42:33Z</time></trkpt>
<trkpt lat="46.04543924" lon="7.48898506"><ele>1821.35498</ele><time>2009-06-16T11:42:54Z</time></trkpt>
<trkpt lat="46.04539633" lon="7.48902798"><ele>1821.35498</ele><time>2009-06-16T11:42:59Z</time></trkpt>
<trkpt lat="46.04496717" lon="7.48917818"><ele>1824.719727</ele><time>2009-06-16T11:43:28Z</time></trkpt>
<trkpt lat="46.04458094" lon="7.48913527"><ele>1823.277832</ele><time>2009-06-16T11:44:02Z</time></trkpt>
<trkpt lat="46.04445219" lon="7.48928547"><ele>1826.161621</ele><time>2009-06-16T11:44:12Z</time></trkpt>
<trkpt lat="46.04440928" lon="7.48952150"><ele>1826.642334</ele><time>2009-06-16T11:44:24Z</time></trkpt>
<trkpt lat="46.04425907" lon="7.48965025"><ele>1826.642334</ele><time>2009-06-16T11:44:34Z</time></trkpt>
<trkpt lat="46.04402304" lon="7.48977900"><ele>1826.642334</ele><time>2009-06-16T11:44:46Z</time></trkpt>
<trkpt lat="46.04337931" lon="7.49027252"><ele>1827.123047</ele><time>2009-06-16T11:45:26Z</time></trkpt>
<trkpt lat="46.04292870" lon="7.49042273"><ele>1827.123047</ele><time>2009-06-16T11:45:47Z</time></trkpt>
<trkpt lat="46.04273558" lon="7.49033689"><ele>1827.603516</ele><time>2009-06-16T11:45:57Z</time></trkpt>
<trkpt lat="46.04245663" lon="7.49012232"><ele>1826.161621</ele><time>2009-06-16T11:46:23Z</time></trkpt>
<trkpt lat="46.04226351" lon="7.49012232"><ele>1828.084229</ele><time>2009-06-16T11:46:38Z</time></trkpt>
<trkpt lat="46.04166269" lon="7.48973608"><ele>1829.04541</ele><time>2009-06-16T11:47:12Z</time></trkpt>
<trkpt lat="46.04146957" lon="7.48952150"><ele>1830.487549</ele><time>2009-06-16T11:47:24Z</time></trkpt>
<trkpt lat="46.04119062" lon="7.48950005"><ele>1831.44873</ele><time>2009-06-16T11:47:37Z</time></trkpt>
<trkpt lat="46.04099751" lon="7.48934984"><ele>1832.410156</ele><time>2009-06-16T11:47:49Z</time></trkpt>
<trkpt lat="46.04086876" lon="7.48913527"><ele>1834.332764</ele><time>2009-06-16T11:48:00Z</time></trkpt>
<trkpt lat="46.04031086" lon="7.48894215"><ele>1836.736084</ele><time>2009-06-16T11:48:29Z</time></trkpt>
<trkpt lat="46.04007483" lon="7.48862028"><ele>1838.658936</ele><time>2009-06-16T11:48:46Z</time></trkpt>
<trkpt lat="46.03966713" lon="7.48836279"><ele>1842.023438</ele><time>2009-06-16T11:49:12Z</time></trkpt>
<trkpt lat="46.03966713" lon="7.48827696"><ele>1842.023438</ele><time>2009-06-16T11:49:16Z</time></trkpt>
<trkpt lat="46.03981733" lon="7.48799801"><ele>1842.023438</ele><time>2009-06-16T11:49:28Z</time></trkpt>
<trkpt lat="46.04028940" lon="7.48789072"><ele>1845.387939</ele><time>2009-06-16T11:49:53Z</time></trkpt>
<trkpt lat="46.04033232" lon="7.48780489"><ele>1840.10083</ele><time>2009-06-16T11:51:42Z</time></trkpt>
<trkpt lat="46.04005337" lon="7.48774052"><ele>1843.946045</ele><time>2009-06-16T11:51:54Z</time></trkpt>
<trkpt lat="46.03940964" lon="7.48774052"><ele>1847.79126</ele><time>2009-06-16T11:52:21Z</time></trkpt>
<trkpt lat="46.03900194" lon="7.48748302"><ele>1848.271729</ele><time>2009-06-16T11:52:36Z</time></trkpt>
<trkpt lat="46.03855133" lon="7.48735428"><ele>1848.271729</ele><time>2009-06-16T11:52:49Z</time></trkpt>
<trkpt lat="46.03752136" lon="7.48673201"><ele>1852.5979</ele><time>2009-06-16T11:53:17Z</time></trkpt>
<trkpt lat="46.03674889" lon="7.48662472"><ele>1854.040039</ele><time>2009-06-16T11:53:35Z</time></trkpt>
<trkpt lat="46.03640556" lon="7.48649597"><ele>1857.404541</ele><time>2009-06-16T11:53:48Z</time></trkpt>
<trkpt lat="46.03608370" lon="7.48623848"><ele>1861.249756</ele><time>2009-06-16T11:54:04Z</time></trkpt>
<trkpt lat="46.03571892" lon="7.48608828"><ele>1863.652832</ele><time>2009-06-16T11:54:21Z</time></trkpt>
<trkpt lat="46.03496790" lon="7.48641014"><ele>1868.459717</ele><time>2009-06-16T11:55:01Z</time></trkpt>
<trkpt lat="46.03432417" lon="7.48610973"><ele>1877.111572</ele><time>2009-06-16T11:55:34Z</time></trkpt>
<trkpt lat="46.03280067" lon="7.48574495"><ele>1888.166748</ele><time>2009-06-16T11:56:53Z</time></trkpt>
<trkpt lat="46.03252172" lon="7.48563766"><ele>1892.011963</ele><time>2009-06-16T11:57:09Z</time></trkpt>
<trkpt lat="46.03230715" lon="7.48544455"><ele>1894.415039</ele><time>2009-06-16T11:57:23Z</time></trkpt>
<trkpt lat="46.03192091" lon="7.48538017"><ele>1895.857178</ele><time>2009-06-16T11:57:40Z</time></trkpt>
<trkpt lat="46.03110552" lon="7.48497248"><ele>1895.376465</ele><time>2009-06-16T11:58:12Z</time></trkpt>
<trkpt lat="46.03056908" lon="7.48503685"><ele>1895.376465</ele><time>2009-06-16T11:58:32Z</time></trkpt>
<trkpt lat="46.03020430" lon="7.48497248"><ele>1895.376465</ele><time>2009-06-16T11:58:49Z</time></trkpt>
<trkpt lat="46.02983952" lon="7.48497248"><ele>1895.376465</ele><time>2009-06-16T11:59:09Z</time></trkpt>
<trkpt lat="46.02953911" lon="7.48510122"><ele>1895.376465</ele><time>2009-06-16T11:59:28Z</time></trkpt>
<trkpt lat="46.02928162" lon="7.48527288"><ele>1895.376465</ele><time>2009-06-16T11:59:45Z</time></trkpt>
<trkpt lat="46.02902412" lon="7.48533726"><ele>1895.376465</ele><time>2009-06-16T12:00:01Z</time></trkpt>
<trkpt lat="46.02870226" lon="7.48522997"><ele>1895.376465</ele><time>2009-06-16T12:00:23Z</time></trkpt>
<trkpt lat="46.02855206" lon="7.48490810"><ele>1895.376465</ele><time>2009-06-16T12:00:44Z</time></trkpt>
<trkpt lat="46.02846622" lon="7.48439312"><ele>1895.376465</ele><time>2009-06-16T12:01:11Z</time></trkpt>
<trkpt lat="46.02835894" lon="7.48407125"><ele>1895.376465</ele><time>2009-06-16T12:01:30Z</time></trkpt>
<trkpt lat="46.02810144" lon="7.48394251"><ele>1895.376465</ele><time>2009-06-16T12:01:46Z</time></trkpt>
<trkpt lat="46.02780104" lon="7.48368502"><ele>1895.376465</ele><time>2009-06-16T12:02:08Z</time></trkpt>
<trkpt lat="46.02752209" lon="7.48374939"><ele>1900.18335</ele><time>2009-06-16T12:02:27Z</time></trkpt>
<trkpt lat="46.02685690" lon="7.48359919"><ele>1929.022461</ele><time>2009-06-16T12:03:08Z</time></trkpt>
<trkpt lat="46.02578402" lon="7.48364210"><ele>1942.481201</ele><time>2009-06-16T12:04:03Z</time></trkpt>
<trkpt lat="46.02486134" lon="7.48297691"><ele>1955.458984</ele><time>2009-06-16T12:04:48Z</time></trkpt>
<trkpt lat="46.02447510" lon="7.48278379"><ele>1955.939453</ele><time>2009-06-16T12:05:04Z</time></trkpt>
<trkpt lat="46.02413177" lon="7.48269796"><ele>1954.497559</ele><time>2009-06-16T12:05:18Z</time></trkpt>
<trkpt lat="46.02389574" lon="7.48246193"><ele>1959.304199</ele><time>2009-06-16T12:05:29Z</time></trkpt>
<trkpt lat="46.02327347" lon="7.48164654"><ele>1968.91748</ele><time>2009-06-16T12:06:00Z</time></trkpt>
<trkpt lat="46.02271557" lon="7.48138905"><ele>1968.436768</ele><time>2009-06-16T12:06:20Z</time></trkpt>
<trkpt lat="46.02121353" lon="7.48181820"><ele>1958.823486</ele><time>2009-06-16T12:07:08Z</time></trkpt>
<trkpt lat="46.02063417" lon="7.48190403"><ele>1958.823486</ele><time>2009-06-16T12:07:27Z</time></trkpt>
<trkpt lat="46.02029085" lon="7.48190403"><ele>1958.823486</ele><time>2009-06-16T12:07:40Z</time></trkpt>
<trkpt lat="46.01994753" lon="7.48218298"><ele>1959.784668</ele><time>2009-06-16T12:07:55Z</time></trkpt>
<trkpt lat="46.01962566" lon="7.48237610"><ele>1960.746094</ele><time>2009-06-16T12:08:09Z</time></trkpt>
<trkpt lat="46.01902485" lon="7.48248339"><ele>1963.149414</ele><time>2009-06-16T12:08:34Z</time></trkpt>
<trkpt lat="46.01767302" lon="7.48342752"><ele>1964.11084</ele><time>2009-06-16T12:09:22Z</time></trkpt>
<trkpt lat="46.01730824" lon="7.48353481"><ele>1965.552979</ele><time>2009-06-16T12:09:37Z</time></trkpt>
<trkpt lat="46.01681471" lon="7.48325586"><ele>1968.91748</ele><time>2009-06-16T12:10:03Z</time></trkpt>
<trkpt lat="46.01653576" lon="7.48317003"><ele>1970.359375</ele><time>2009-06-16T12:10:17Z</time></trkpt>
<trkpt lat="46.01546288" lon="7.48325586"><ele>1972.762695</ele><time>2009-06-16T12:11:02Z</time></trkpt>
<trkpt lat="46.01499081" lon="7.48334169"><ele>1973.723877</ele><time>2009-06-16T12:11:18Z</time></trkpt>
<trkpt lat="46.01445436" lon="7.48398542"><ele>1976.127197</ele><time>2009-06-16T12:11:42Z</time></trkpt>
<trkpt lat="46.01393938" lon="7.48424292"><ele>1976.60791</ele><time>2009-06-16T12:12:09Z</time></trkpt>
<trkpt lat="46.01374626" lon="7.48439312"><ele>1977.569092</ele><time>2009-06-16T12:12:22Z</time></trkpt>
<trkpt lat="46.01368189" lon="7.48452187"><ele>1981.414551</ele><time>2009-06-16T12:13:11Z</time></trkpt>
<trkpt lat="46.01359606" lon="7.48456478"><ele>1980.934082</ele><time>2009-06-16T12:13:44Z</time></trkpt>
<trkpt lat="46.01333857" lon="7.48456478"><ele>1980.934082</ele><time>2009-06-16T12:14:01Z</time></trkpt>
<trkpt lat="46.01312399" lon="7.48465061"><ele>1981.414551</ele><time>2009-06-16T12:14:13Z</time></trkpt>
<trkpt lat="46.01288795" lon="7.48465061"><ele>1981.895264</ele><time>2009-06-16T12:14:28Z</time></trkpt>
<trkpt lat="46.01205111" lon="7.48495102"><ele>1982.856445</ele><time>2009-06-16T12:15:16Z</time></trkpt>
<trkpt lat="46.01117134" lon="7.48559475"><ele>1984.298584</ele><time>2009-06-16T12:15:57Z</time></trkpt>
<trkpt lat="46.01035595" lon="7.48604536"><ele>1983.817871</ele><time>2009-06-16T12:16:33Z</time></trkpt>
<trkpt lat="46.01001263" lon="7.48613119"><ele>1983.337158</ele><time>2009-06-16T12:16:49Z</time></trkpt>
<trkpt lat="46.00904703" lon="7.48563766"><ele>1983.337158</ele><time>2009-06-16T12:18:09Z</time></trkpt>
<trkpt lat="46.00816727" lon="7.48568058"><ele>1983.337158</ele><time>2009-06-16T12:19:09Z</time></trkpt>
<trkpt lat="46.00793123" lon="7.48563766"><ele>1983.337158</ele><time>2009-06-16T12:19:25Z</time></trkpt>
<trkpt lat="46.00763083" lon="7.48546600"><ele>1983.337158</ele><time>2009-06-16T12:19:41Z</time></trkpt>
<trkpt lat="46.00739479" lon="7.48540163"><ele>1983.337158</ele><time>2009-06-16T12:19:53Z</time></trkpt>
<trkpt lat="46.00709438" lon="7.48542309"><ele>1983.337158</ele><time>2009-06-16T12:20:08Z</time></trkpt>
<trkpt lat="46.00649357" lon="7.48568058"><ele>1983.817871</ele><time>2009-06-16T12:20:37Z</time></trkpt>
<trkpt lat="46.00625753" lon="7.48602390"><ele>1983.817871</ele><time>2009-06-16T12:20:48Z</time></trkpt>
<trkpt lat="46.00604296" lon="7.48643160"><ele>1984.298584</ele><time>2009-06-16T12:21:03Z</time></trkpt>
<trkpt lat="46.00576401" lon="7.48688221"><ele>1985.740479</ele><time>2009-06-16T12:21:32Z</time></trkpt>
<trkpt lat="46.00539923" lon="7.48737574"><ele>1986.70166</ele><time>2009-06-16T12:22:00Z</time></trkpt>
<trkpt lat="46.00527048" lon="7.48761177"><ele>1987.182373</ele><time>2009-06-16T12:22:12Z</time></trkpt>
<trkpt lat="46.00516319" lon="7.48795509"><ele>1988.143799</ele><time>2009-06-16T12:22:26Z</time></trkpt>
<trkpt lat="46.00501299" lon="7.48819113"><ele>1988.143799</ele><time>2009-06-16T12:22:39Z</time></trkpt>
<trkpt lat="46.00488424" lon="7.48821259"><ele>1989.585693</ele><time>2009-06-16T12:22:52Z</time></trkpt>
<trkpt lat="46.00449800" lon="7.48842716"><ele>1991.027588</ele><time>2009-06-16T12:23:23Z</time></trkpt>
<trkpt lat="46.00411177" lon="7.48883486"><ele>1993.911621</ele><time>2009-06-16T12:24:04Z</time></trkpt>
<trkpt lat="46.00368261" lon="7.48909235"><ele>1998.718262</ele><time>2009-06-16T12:24:41Z</time></trkpt>
<trkpt lat="46.00348949" lon="7.48928547"><ele>2000.640869</ele><time>2009-06-16T12:24:58Z</time></trkpt>
<trkpt lat="46.00329638" lon="7.48954296"><ele>2002.082764</ele><time>2009-06-16T12:25:13Z</time></trkpt>
<trkpt lat="46.00310326" lon="7.48971462"><ele>2003.044189</ele><time>2009-06-16T12:25:25Z</time></trkpt>
<trkpt lat="46.00286722" lon="7.49005795"><ele>2006.889404</ele><time>2009-06-16T12:25:39Z</time></trkpt>
<trkpt lat="46.00284576" lon="7.49012232"><ele>2007.370117</ele><time>2009-06-16T12:25:40Z</time></trkpt>
<trkpt lat="46.00297451" lon="7.49061584"><ele>2010.734619</ele><time>2009-06-16T12:25:58Z</time></trkpt>
<trkpt lat="46.00295305" lon="7.49091625"><ele>2013.618652</ele><time>2009-06-16T12:26:12Z</time></trkpt>
<trkpt lat="46.00275993" lon="7.49140978"><ele>2017.463867</ele><time>2009-06-16T12:26:38Z</time></trkpt>
<trkpt lat="46.00267410" lon="7.49177456"><ele>2017.94458</ele><time>2009-06-16T12:26:54Z</time></trkpt>
<trkpt lat="46.00275993" lon="7.49196768"><ele>2021.789795</ele><time>2009-06-16T12:27:06Z</time></trkpt>
<trkpt lat="46.00295305" lon="7.49203205"><ele>2023.712402</ele><time>2009-06-16T12:27:20Z</time></trkpt>
<trkpt lat="46.00318909" lon="7.49198914"><ele>2024.673828</ele><time>2009-06-16T12:27:35Z</time></trkpt>
<trkpt lat="46.00338221" lon="7.49201059"><ele>2028.038574</ele><time>2009-06-16T12:27:46Z</time></trkpt>
<trkpt lat="46.00363970" lon="7.49194622"><ele>2032.844971</ele><time>2009-06-16T12:28:00Z</time></trkpt>
<trkpt lat="46.00378990" lon="7.49201059"><ele>2036.209717</ele><time>2009-06-16T12:28:13Z</time></trkpt>
<trkpt lat="46.00368261" lon="7.49216080"><ele>2038.613037</ele><time>2009-06-16T12:28:23Z</time></trkpt>
<trkpt lat="46.00299597" lon="7.49239683"><ele>2045.822998</ele><time>2009-06-16T12:28:59Z</time></trkpt>
<trkpt lat="46.00278139" lon="7.49258995"><ele>2048.226074</ele><time>2009-06-16T12:29:12Z</time></trkpt>
<trkpt lat="46.00222349" lon="7.49289036"><ele>2053.994141</ele><time>2009-06-16T12:29:50Z</time></trkpt>
<trkpt lat="46.00179434" lon="7.49267578"><ele>2064.568604</ele><time>2009-06-16T12:30:22Z</time></trkpt>
<trkpt lat="46.00147247" lon="7.49276161"><ele>2066.971924</ele><time>2009-06-16T12:30:37Z</time></trkpt>
<trkpt lat="46.00121498" lon="7.49278307"><ele>2069.375244</ele><time>2009-06-16T12:30:49Z</time></trkpt>
<trkpt lat="46.00104332" lon="7.49271870"><ele>2072.739746</ele><time>2009-06-16T12:30:59Z</time></trkpt>
<trkpt lat="46.00093603" lon="7.49291182"><ele>2075.142822</ele><time>2009-06-16T12:31:10Z</time></trkpt>
<trkpt lat="46.00072145" lon="7.49312639"><ele>2078.988281</ele><time>2009-06-16T12:31:25Z</time></trkpt>
<trkpt lat="46.00048542" lon="7.49329805"><ele>2083.314209</ele><time>2009-06-16T12:31:42Z</time></trkpt>
<trkpt lat="46.00024939" lon="7.49361992"><ele>2087.159424</ele><time>2009-06-16T12:32:06Z</time></trkpt>
<trkpt lat="46.00014210" lon="7.49370575"><ele>2091.004639</ele><time>2009-06-16T12:32:19Z</time></trkpt>
<trkpt lat="46.00014210" lon="7.49374866"><ele>2103.02124</ele><time>2009-06-16T12:32:43Z</time></trkpt>
<trkpt lat="46.00016356" lon="7.49361992"><ele>2126.093018</ele><time>2009-06-16T12:43:00Z</time></trkpt>
<trkpt lat="46.00029230" lon="7.49353409"><ele>2128.496338</ele><time>2009-06-16T12:43:20Z</time></trkpt>
<trkpt lat="46.00046396" lon="7.49327660"><ele>2126.093018</ele><time>2009-06-16T12:43:30Z</time></trkpt>
<trkpt lat="46.00082874" lon="7.49299765"><ele>2127.054443</ele><time>2009-06-16T12:43:42Z</time></trkpt>
<trkpt lat="46.00104332" lon="7.49271870"><ele>2124.651123</ele><time>2009-06-16T12:43:53Z</time></trkpt>
<trkpt lat="46.00181580" lon="7.49258995"><ele>2125.612305</ele><time>2009-06-16T12:44:23Z</time></trkpt>
<trkpt lat="46.00245953" lon="7.49271870"><ele>2127.534912</ele><time>2009-06-16T12:44:44Z</time></trkpt>
<trkpt lat="46.00331783" lon="7.49222517"><ele>2120.805664</ele><time>2009-06-16T12:45:05Z</time></trkpt>
<trkpt lat="46.00383282" lon="7.49207497"><ele>2119.36377</ele><time>2009-06-16T12:45:16Z</time></trkpt>
<trkpt lat="46.00381136" lon="7.49186039"><ele>2118.883057</ele><time>2009-06-16T12:45:22Z</time></trkpt>
<trkpt lat="46.00359678" lon="7.49194622"><ele>2116.960449</ele><time>2009-06-16T12:45:27Z</time></trkpt>
<trkpt lat="46.00284576" lon="7.49190331"><ele>2111.192627</ele><time>2009-06-16T12:45:44Z</time></trkpt>
<trkpt lat="46.00275993" lon="7.49153852"><ele>2110.711914</ele><time>2009-06-16T12:45:51Z</time></trkpt>
<trkpt lat="46.00297451" lon="7.49072313"><ele>2104.463135</ele><time>2009-06-16T12:46:04Z</time></trkpt>
<trkpt lat="46.00293159" lon="7.48999357"><ele>2098.695313</ele><time>2009-06-16T12:46:15Z</time></trkpt>
<trkpt lat="46.00306034" lon="7.48973608"><ele>2098.2146</ele><time>2009-06-16T12:46:22Z</time></trkpt>
<trkpt lat="46.00333929" lon="7.48943567"><ele>2096.772705</ele><time>2009-06-16T12:46:33Z</time></trkpt>
<trkpt lat="46.00359678" lon="7.48911381"><ele>2095.330811</ele><time>2009-06-16T12:46:42Z</time></trkpt>
<trkpt lat="46.00419760" lon="7.48866320"><ele>2097.253418</ele><time>2009-06-16T12:46:59Z</time></trkpt>
<trkpt lat="46.00447655" lon="7.48840570"><ele>2092.92749</ele><time>2009-06-16T12:47:07Z</time></trkpt>
<trkpt lat="46.00499153" lon="7.48808384"><ele>2082.353027</ele><time>2009-06-16T12:47:22Z</time></trkpt>
<trkpt lat="46.00507736" lon="7.48806238"><ele>2081.391602</ele><time>2009-06-16T12:47:26Z</time></trkpt>
<trkpt lat="46.00518465" lon="7.48795509"><ele>2079.468994</ele><time>2009-06-16T12:47:31Z</time></trkpt>
<trkpt lat="46.00535631" lon="7.48752594"><ele>2078.0271</ele><time>2009-06-16T12:47:41Z</time></trkpt>
<trkpt lat="46.00574255" lon="7.48690367"><ele>2074.181641</ele><time>2009-06-16T12:47:59Z</time></trkpt>
<trkpt lat="46.00591421" lon="7.48658180"><ele>2071.77832</ele><time>2009-06-16T12:48:10Z</time></trkpt>
<trkpt lat="46.00617170" lon="7.48621702"><ele>2070.817139</ele><time>2009-06-16T12:48:20Z</time></trkpt>
<trkpt lat="46.00625753" lon="7.48598099"><ele>2070.817139</ele><time>2009-06-16T12:48:24Z</time></trkpt>
<trkpt lat="46.00664377" lon="7.48553038"><ele>2067.933105</ele><time>2009-06-16T12:48:37Z</time></trkpt>
<trkpt lat="46.00752354" lon="7.48533726"><ele>2062.645996</ele><time>2009-06-16T12:49:03Z</time></trkpt>
<trkpt lat="46.00812435" lon="7.48557329"><ele>2060.723389</ele><time>2009-06-16T12:49:23Z</time></trkpt>
<trkpt lat="46.00906849" lon="7.48555183"><ele>2053.994141</ele><time>2009-06-16T12:49:45Z</time></trkpt>
<trkpt lat="46.01001263" lon="7.48604536"><ele>2037.170898</ele><time>2009-06-16T12:50:08Z</time></trkpt>
<trkpt lat="46.01020575" lon="7.48602390"><ele>2036.209717</ele><time>2009-06-16T12:50:12Z</time></trkpt>
<trkpt lat="46.01046324" lon="7.48593807"><ele>2034.767822</ele><time>2009-06-16T12:50:18Z</time></trkpt>
<trkpt lat="46.01136446" lon="7.48544455"><ele>2026.596436</ele><time>2009-06-16T12:50:45Z</time></trkpt>
<trkpt lat="46.01162195" lon="7.48520851"><ele>2024.673828</ele><time>2009-06-16T12:50:55Z</time></trkpt>
<trkpt lat="46.01220131" lon="7.48477936"><ele>2022.270508</ele><time>2009-06-16T12:51:09Z</time></trkpt>
<trkpt lat="46.01295233" lon="7.48454332"><ele>2017.463867</ele><time>2009-06-16T12:51:24Z</time></trkpt>
<trkpt lat="46.01348877" lon="7.48450041"><ele>2015.060791</ele><time>2009-06-16T12:51:34Z</time></trkpt>
<trkpt lat="46.01456165" lon="7.48387814"><ele>2006.889404</ele><time>2009-06-16T12:51:50Z</time></trkpt>
<trkpt lat="46.01490498" lon="7.48340607"><ele>2004.486084</ele><time>2009-06-16T12:51:56Z</time></trkpt>
<trkpt lat="46.01522684" lon="7.48321295"><ele>2004.005615</ele><time>2009-06-16T12:52:01Z</time></trkpt>
<trkpt lat="46.01612806" lon="7.48310566"><ele>2001.602295</ele><time>2009-06-16T12:52:15Z</time></trkpt>
<trkpt lat="46.01660013" lon="7.48310566"><ele>1999.679688</ele><time>2009-06-16T12:52:22Z</time></trkpt>
<trkpt lat="46.01687908" lon="7.48321295"><ele>1997.75708</ele><time>2009-06-16T12:52:26Z</time></trkpt>
<trkpt lat="46.01720095" lon="7.48349190"><ele>1996.315186</ele><time>2009-06-16T12:52:31Z</time></trkpt>
<trkpt lat="46.01758718" lon="7.48351336"><ele>1994.39209</ele><time>2009-06-16T12:52:36Z</time></trkpt>
<trkpt lat="46.01855278" lon="7.48291254"><ele>1990.066406</ele><time>2009-06-16T12:52:49Z</time></trkpt>
<trkpt lat="46.01934671" lon="7.48229027"><ele>1989.585693</ele><time>2009-06-16T12:53:02Z</time></trkpt>
<trkpt lat="46.01999044" lon="7.48207569"><ele>1990.066406</ele><time>2009-06-16T12:53:12Z</time></trkpt>
<trkpt lat="46.02014065" lon="7.48192549"><ele>1989.10498</ele><time>2009-06-16T12:53:15Z</time></trkpt>
<trkpt lat="46.02063417" lon="7.48177528"><ele>1986.221191</ele><time>2009-06-16T12:53:23Z</time></trkpt>
<trkpt lat="46.02132082" lon="7.48171091"><ele>1983.337158</ele><time>2009-06-16T12:53:33Z</time></trkpt>
<trkpt lat="46.02320910" lon="7.48143196"><ele>1976.60791</ele><time>2009-06-16T12:54:00Z</time></trkpt>
<trkpt lat="46.02342367" lon="7.48143196"><ele>1976.60791</ele><time>2009-06-16T12:54:03Z</time></trkpt>
<trkpt lat="46.02359533" lon="7.48158216"><ele>1976.60791</ele><time>2009-06-16T12:54:07Z</time></trkpt>
<trkpt lat="46.02406740" lon="7.48235464"><ele>1973.723877</ele><time>2009-06-16T12:54:20Z</time></trkpt>
<trkpt lat="46.02486134" lon="7.48278379"><ele>1968.91748</ele><time>2009-06-16T12:54:36Z</time></trkpt>
<trkpt lat="46.02586985" lon="7.48362064"><ele>1962.187988</ele><time>2009-06-16T12:54:55Z</time></trkpt>
<trkpt lat="46.02681398" lon="7.48357773"><ele>1954.497559</ele><time>2009-06-16T12:55:07Z</time></trkpt>
<trkpt lat="46.02747917" lon="7.48377085"><ele>1950.171875</ele><time>2009-06-16T12:55:14Z</time></trkpt>
<trkpt lat="46.02797270" lon="7.48379230"><ele>1945.36499</ele><time>2009-06-16T12:55:20Z</time></trkpt>
<trkpt lat="46.02810144" lon="7.48394251"><ele>1944.403564</ele><time>2009-06-16T12:55:22Z</time></trkpt>
<trkpt lat="46.02842331" lon="7.48415709"><ele>1943.442383</ele><time>2009-06-16T12:55:26Z</time></trkpt>
<trkpt lat="46.02863789" lon="7.48443604"><ele>1942.481201</ele><time>2009-06-16T12:55:30Z</time></trkpt>
<trkpt lat="46.02863789" lon="7.48475790"><ele>1942.000488</ele><time>2009-06-16T12:55:33Z</time></trkpt>
<trkpt lat="46.02878809" lon="7.48527288"><ele>1938.155273</ele><time>2009-06-16T12:55:38Z</time></trkpt>
<trkpt lat="46.02910995" lon="7.48533726"><ele>1934.310059</ele><time>2009-06-16T12:55:42Z</time></trkpt>
<trkpt lat="46.02953911" lon="7.48529434"><ele>1928.541992</ele><time>2009-06-16T12:55:50Z</time></trkpt>
<trkpt lat="46.02996826" lon="7.48518705"><ele>1916.525635</ele><time>2009-06-16T12:56:00Z</time></trkpt>
<trkpt lat="46.03026867" lon="7.48518705"><ele>1909.315674</ele><time>2009-06-16T12:56:08Z</time></trkpt>
<trkpt lat="46.03033304" lon="7.48525143"><ele>1908.354248</ele><time>2009-06-16T12:56:15Z</time></trkpt>
</trkseg></trk></gpx>